aviador You're here:

KGCC Decoded Metar

GILLETTE in WY, USA
Report Time2018-07-19 18:53:00
UTC Time2018-07-19 19:21:15
Flight Rules vfr VFR
Wind360° at 14 Gusting to 20 kt
W.Decomp.*RWY 34: 13.9 kt HW 1.9 kt RCW
RWY 03: 10.4 kt HW 9.4 kt LCW
Visibility9999 m
Phenomena:N/A
Clouds:N/A
Expected CloudBase > 9,200 ft AGL from Temp-Dew spread
CeilingNone
Temp30°C (ISA +24)
Dew Point07°C (24% RH)
Heat Index28.4°C
AAT24.3°C
QNH1018 hPa
Density Alt6,978 ft
Elevation4,331 ft
Report Wrong Elevation
Raw Report
KGCC 191853Z AUTO 36014G20KT 10SM CLR 30/07 A3005 RMK AO2 SLP126
T03000067=

Extra information for KGCC:More info

Metar Taf Metar & Taf Last 4 Metars F.Rules Stats Wind Profile Meteogram Temp Stats Airport Information Weather charts Add Link Nearby VenuesMetar ALERT Operation Metar Decoded Social comments

AIRNAV info for KGCC